LTCT

Iğdır

Iğdır, Turkey
TAF LTCT 221340Z 2215/2224 27012KT 9999 FEW025CB BKN035 BECMG 2215/2217 SCT035 BKN070
Issued Valid From Valid To
Jul-22 @ 13:40 UTC
(6 hours ago)
Jul-22 @ 15:00 UTC
(5 hours ago)
Jul-23 @ 00:00 UTC
(in 4 hours)
Jul-22 @ 15:00 to Jul-23 @ 00:00
TAF LTCT 221340Z 2215/2224 27012KT 9999 FEW025CB BKN035
Wind Visibility Clouds
270° at 12 knots 10,000+ meters
  • Few at 2,500' AGL
  • Broken at 3,500' AGL
Becoming Jul-22 @ 15:00 to Jul-23 @ 00:00
BECMG 2215/2217 SCT035 BKN070
Wind Visibility Clouds
270° at 12 knots 10,000+ meters
  • Scattered at 3,500' AGL
  • Broken at 7,000' AGL
TAF LTCT 221340Z 2215/2224 27012KT 9999 FEW025CB BKN035 BECMG 2215/2217 SCT035 BKN070
Issued Jul-22 @ 13:40 UTC
(6 hours ago)
Valid From Jul-22 @ 15:00 UTC
(5 hours ago)
Valid To Jul-23 @ 00:00 UTC
(in 4 hours)
Jul-22 @ 15:00 - Jul-23 @ 00:00
Wind Visibility
270° at 12 knots 10,000+ meters
Clouds
  • Few at 2,500' AGL
  • Broken at 3,500' AGL
Becoming Jul-22 @ 15:00 - Jul-23 @ 00:00
Wind Visibility
270° at 12 knots 10,000+ meters
Clouds
  • Scattered at 3,500' AGL
  • Broken at 7,000' AGL